createdAt,value
2023-04-30T00:00:39.185Z,14.51
2023-04-30T00:03:42.970Z,16.07
2023-04-30T00:06:46.857Z,17.26
2023-04-30T00:09:51.841Z,17.51
2023-04-30T00:12:56.022Z,17.75
2023-04-30T00:15:59.854Z,18.54
2023-04-30T00:19:03.564Z,19.17
2023-04-30T00:22:07.547Z,17.81
2023-04-30T00:25:10.796Z,17.89
2023-04-30T00:28:14.300Z,18.48
2023-04-30T00:31:17.847Z,18.98
2023-04-30T00:34:21.411Z,20.40
2023-04-30T00:37:25.000Z,20.79
2023-04-30T00:40:29.106Z,17.59
2023-04-30T00:43:32.716Z,17.04
2023-04-30T00:46:36.904Z,18.06
2023-04-30T00:49:39.800Z,18.81
2023-04-30T00:52:45.186Z,18.52
2023-04-30T00:55:49.435Z,18.93
2023-04-30T00:58:57.844Z,19.13
2023-04-30T01:02:03.603Z,18.19
2023-04-30T01:05:07.945Z,15.94
2023-04-30T01:08:12.300Z,14.72
2023-04-30T01:11:34.942Z,13.78
2023-04-30T01:15:09.168Z,13.30
2023-04-30T01:18:21.546Z,13.28
2023-04-30T01:21:25.275Z,13.75
2023-04-30T01:24:46.896Z,14.16
2023-04-30T01:27:55.509Z,13.95
2023-04-30T01:30:59.897Z,14.25
2023-04-30T01:34:03.698Z,16.80
2023-04-30T01:37:19.351Z,17.73
2023-04-30T01:40:25.342Z,16.56
2023-04-30T01:43:44.059Z,16.61
2023-04-30T01:46:58.113Z,15.91
2023-04-30T01:50:11.775Z,15.10
2023-04-30T01:53:38.425Z,14.39
2023-04-30T01:56:51.146Z,14.03
2023-04-30T01:59:54.883Z,13.74
2023-04-30T02:02:59.828Z,13.56
2023-04-30T02:06:03.602Z,13.64
2023-04-30T02:09:07.594Z,13.67
2023-04-30T02:12:11.628Z,13.32
2023-04-30T02:15:14.628Z,12.86
2023-04-30T02:18:18.547Z,13.04
2023-04-30T02:21:22.374Z,13.10
2023-04-30T02:24:26.079Z,13.34
2023-04-30T02:27:33.192Z,13.66
2023-04-30T02:30:36.739Z,13.67
2023-04-30T02:33:39.988Z,13.32
2023-04-30T02:36:43.199Z,13.50
2023-04-30T02:39:46.694Z,13.44
2023-04-30T02:42:49.638Z,13.21
2023-04-30T02:45:53.393Z,13.23
2023-04-30T02:48:57.304Z,13.40
2023-04-30T02:52:00.330Z,13.02
2023-04-30T02:55:03.453Z,12.69
2023-04-30T02:58:07.248Z,12.54
2023-04-30T03:01:10.999Z,13.03
2023-04-30T03:04:13.932Z,12.91
2023-04-30T03:07:17.948Z,13.05
2023-04-30T03:10:22.077Z,13.32
2023-04-30T03:13:28.252Z,13.63
2023-04-30T03:16:31.985Z,13.53
2023-04-30T03:19:37.619Z,13.75
2023-04-30T03:22:41.644Z,14.01
2023-04-30T03:25:46.733Z,14.05
2023-04-30T03:28:50.000Z,14.49
2023-04-30T03:31:53.326Z,14.95
2023-04-30T03:34:56.451Z,15.15
2023-04-30T03:38:00.563Z,15.48
2023-04-30T03:41:04.314Z,15.76
2023-04-30T03:44:07.887Z,16.28
2023-04-30T03:47:10.931Z,16.74
2023-04-30T03:50:14.602Z,16.67
2023-04-30T03:53:17.961Z,16.69
2023-04-30T03:56:21.825Z,17.03
2023-04-30T03:59:26.166Z,17.05
2023-04-30T04:02:32.330Z,17.01
2023-04-30T04:05:36.422Z,16.87
2023-04-30T04:08:39.520Z,16.95
2023-04-30T04:11:43.964Z,16.98
2023-04-30T04:14:47.651Z,17.14
2023-04-30T04:17:50.577Z,17.12
2023-04-30T04:20:53.585Z,17.67
2023-04-30T04:23:57.429Z,18.49
2023-04-30T04:27:03.244Z,19.17
2023-04-30T04:30:07.399Z,19.91
2023-04-30T04:33:12.328Z,19.80
2023-04-30T04:36:15.584Z,19.61
2023-04-30T04:39:19.368Z,19.03
2023-04-30T04:42:23.885Z,19.29
2023-04-30T04:45:27.314Z,19.22
2023-04-30T04:48:30.456Z,19.10
2023-04-30T04:51:33.721Z,18.76
2023-04-30T04:54:37.506Z,18.61
2023-04-30T04:57:42.886Z,18.61
2023-04-30T05:00:46.618Z,19.15
2023-04-30T05:03:51.266Z,19.70
2023-04-30T05:06:55.369Z,19.54
2023-04-30T05:09:59.438Z,19.73
2023-04-30T05:13:03.210Z,19.97
2023-04-30T05:16:06.274Z,20.04
2023-04-30T05:19:10.330Z,19.96
2023-04-30T05:22:14.420Z,19.88
2023-04-30T05:25:17.320Z,19.65
2023-04-30T05:28:20.540Z,19.34
2023-04-30T05:31:23.737Z,19.44
2023-04-30T05:34:27.042Z,19.45
2023-04-30T05:37:29.936Z,18.81
2023-04-30T05:40:33.828Z,18.26
2023-04-30T05:43:37.336Z,18.37
2023-04-30T05:46:41.005Z,18.81
2023-04-30T05:49:44.704Z,19.08
2023-04-30T05:52:47.914Z,19.11
2023-04-30T05:55:52.336Z,19.43
2023-04-30T05:58:55.910Z,19.80
2023-04-30T06:01:59.434Z,19.89
2023-04-30T06:05:03.842Z,20.10
2023-04-30T06:08:07.895Z,20.53
2023-04-30T06:11:13.125Z,20.22
2023-04-30T06:14:16.176Z,19.90
2023-04-30T06:17:19.547Z,19.80
2023-04-30T06:20:23.198Z,19.88
2023-04-30T06:23:26.827Z,19.87
2023-04-30T06:26:31.369Z,19.79
2023-04-30T06:29:35.157Z,19.97
2023-04-30T06:32:38.460Z,19.84
2023-04-30T06:35:42.670Z,19.88
2023-04-30T06:38:47.996Z,19.82
2023-04-30T06:41:53.075Z,19.75
2023-04-30T06:44:57.895Z,19.96
2023-04-30T06:48:02.097Z,20.42
2023-04-30T06:51:05.952Z,20.77
2023-04-30T06:54:09.203Z,21.15
2023-04-30T06:57:12.931Z,21.21
2023-04-30T07:00:16.337Z,21.24
2023-04-30T07:03:20.112Z,20.95
2023-04-30T07:06:24.144Z,20.76
2023-04-30T07:09:27.774Z,20.77
2023-04-30T07:12:32.215Z,20.75
2023-04-30T07:15:35.947Z,20.83
2023-04-30T07:18:40.689Z,20.68
2023-04-30T07:21:44.349Z,20.58
2023-04-30T07:24:48.271Z,20.70
2023-04-30T07:27:57.008Z,20.75
2023-04-30T07:31:01.674Z,20.85
2023-04-30T07:34:05.328Z,20.80
2023-04-30T07:37:09.759Z,20.80
2023-04-30T07:40:22.033Z,20.80
2023-04-30T07:43:34.329Z,20.76
2023-04-30T07:46:37.309Z,20.60
2023-04-30T07:49:40.943Z,20.86
2023-04-30T07:52:43.951Z,20.97
2023-04-30T07:55:48.777Z,20.80
2023-04-30T07:58:52.448Z,20.59
2023-04-30T08:01:56.157Z,20.52
2023-04-30T08:04:59.106Z,20.29
2023-04-30T08:08:02.812Z,19.92
2023-04-30T08:11:06.559Z,19.78
2023-04-30T08:14:10.571Z,19.75
2023-04-30T08:17:13.523Z,19.58
2023-04-30T08:20:17.782Z,19.54
2023-04-30T08:23:20.920Z,19.67
2023-04-30T08:26:24.947Z,19.82
2023-04-30T08:29:29.297Z,19.84
2023-04-30T08:32:32.591Z,19.92
2023-04-30T08:35:35.524Z,19.96
2023-04-30T08:38:39.589Z,20.00
2023-04-30T08:41:47.547Z,20.04
2023-04-30T08:45:17.189Z,20.06
2023-04-30T08:48:24.779Z,20.01
2023-04-30T08:51:32.853Z,20.01
2023-04-30T08:54:37.488Z,20.06
2023-04-30T08:57:41.537Z,20.13
2023-04-30T09:00:45.376Z,20.12
2023-04-30T09:03:48.782Z,20.00
2023-04-30T09:06:59.549Z,19.84
2023-04-30T09:10:03.938Z,19.67
2023-04-30T09:13:09.727Z,19.59
2023-04-30T09:16:13.378Z,19.52
2023-04-30T09:19:31.420Z,19.45
2023-04-30T09:22:37.050Z,19.31
2023-04-30T09:25:42.277Z,19.23
2023-04-30T09:28:58.982Z,19.52
2023-04-30T09:32:10.828Z,19.58
2023-04-30T09:35:31.520Z,19.64
2023-04-30T09:38:35.449Z,19.67
2023-04-30T09:41:39.326Z,19.65
2023-04-30T09:44:44.399Z,19.53
2023-04-30T09:47:48.124Z,19.35
2023-04-30T09:50:52.975Z,19.19
2023-04-30T09:53:57.069Z,19.21
2023-04-30T09:57:02.485Z,19.49
2023-04-30T10:00:09.373Z,19.70
2023-04-30T10:03:15.510Z,19.69
2023-04-30T10:06:21.690Z,19.63
2023-04-30T10:09:30.008Z,19.50
2023-04-30T10:12:51.142Z,19.50
2023-04-30T10:16:02.602Z,19.41
2023-04-30T10:19:12.753Z,19.28
2023-04-30T10:22:17.405Z,19.15
2023-04-30T10:25:20.623Z,18.98
2023-04-30T10:28:25.335Z,18.80
2023-04-30T10:31:29.671Z,18.74
2023-04-30T10:34:40.242Z,18.64
2023-04-30T10:38:05.888Z,18.62
2023-04-30T10:41:10.494Z,18.47
2023-04-30T10:44:14.322Z,18.32
2023-04-30T10:47:20.207Z,18.19
2023-04-30T10:50:24.485Z,18.12
2023-04-30T10:53:32.393Z,18.02
2023-04-30T10:56:37.106Z,17.88
2023-04-30T10:59:49.195Z,17.80
2023-04-30T11:02:57.564Z,17.67
2023-04-30T11:06:05.405Z,17.54
2023-04-30T11:09:08.998Z,17.46
2023-04-30T11:12:20.646Z,17.38
2023-04-30T11:15:32.425Z,17.31
2023-04-30T11:18:35.943Z,17.21
2023-04-30T11:22:04.852Z,17.12
2023-04-30T11:25:15.938Z,17.01
2023-04-30T11:28:19.730Z,16.93
2023-04-30T11:31:23.309Z,16.85
2023-04-30T11:34:27.227Z,16.74
2023-04-30T11:37:38.571Z,16.67
2023-04-30T11:40:41.599Z,16.58
2023-04-30T11:43:45.522Z,16.50
2023-04-30T11:46:50.066Z,16.41
2023-04-30T11:49:54.545Z,16.36
2023-04-30T11:52:59.586Z,16.30
2023-04-30T11:56:04.417Z,16.27
2023-04-30T11:59:33.339Z,16.18
2023-04-30T12:02:37.245Z,16.09
2023-04-30T12:05:42.238Z,16.01
2023-04-30T12:08:45.128Z,15.95
2023-04-30T12:11:48.642Z,15.89
2023-04-30T12:14:52.383Z,15.84
2023-04-30T12:18:00.257Z,15.77
2023-04-30T12:21:04.860Z,15.72
2023-04-30T12:24:08.913Z,15.70
2023-04-30T12:27:13.105Z,15.67
2023-04-30T12:30:21.921Z,15.62
2023-04-30T12:33:25.541Z,15.61
2023-04-30T12:36:33.827Z,15.57
2023-04-30T12:39:37.166Z,15.53
2023-04-30T12:42:43.167Z,15.47
2023-04-30T12:45:54.305Z,15.45
2023-04-30T12:48:57.469Z,15.43
2023-04-30T12:52:03.499Z,15.37
2023-04-30T12:55:18.982Z,15.37
2023-04-30T12:58:22.021Z,15.32
2023-04-30T13:01:26.695Z,15.27
2023-04-30T13:04:30.570Z,15.21
2023-04-30T13:07:43.112Z,15.17
2023-04-30T13:10:48.046Z,15.11
2023-04-30T13:13:51.290Z,15.09
2023-04-30T13:16:55.608Z,15.02
2023-04-30T13:19:58.481Z,14.98
2023-04-30T13:23:02.054Z,14.92
2023-04-30T13:26:04.995Z,14.86
2023-04-30T13:29:09.066Z,14.80
2023-04-30T13:32:12.052Z,14.77
2023-04-30T13:35:16.193Z,14.74
2023-04-30T13:38:19.818Z,14.68
2023-04-30T13:41:23.400Z,14.64
2023-04-30T13:44:27.004Z,14.60
2023-04-30T13:47:30.975Z,14.51
2023-04-30T13:50:33.820Z,14.46
2023-04-30T13:53:37.928Z,14.43
2023-04-30T13:56:40.917Z,14.39
2023-04-30T13:59:45.198Z,14.40
2023-04-30T14:02:49.414Z,14.38
2023-04-30T14:05:53.529Z,14.34
2023-04-30T14:08:57.255Z,14.33
2023-04-30T14:12:00.965Z,14.30
2023-04-30T14:15:04.291Z,14.27
2023-04-30T14:18:07.864Z,14.27
2023-04-30T14:21:12.224Z,14.29
2023-04-30T14:24:16.694Z,14.29
2023-04-30T14:27:20.418Z,14.17
2023-04-30T14:30:23.992Z,14.08
2023-04-30T14:33:27.601Z,14.23
2023-04-30T14:36:31.398Z,14.22
2023-04-30T14:39:34.380Z,14.11
2023-04-30T14:42:37.348Z,14.05
2023-04-30T14:45:41.671Z,14.13
2023-04-30T14:48:45.846Z,14.00
2023-04-30T14:51:48.945Z,13.92
2023-04-30T14:54:51.932Z,13.76
2023-04-30T14:57:54.973Z,13.65
2023-04-30T15:00:58.374Z,13.62
2023-04-30T15:04:02.730Z,13.61
2023-04-30T15:07:06.803Z,13.55
2023-04-30T15:10:11.526Z,13.52
2023-04-30T15:13:14.827Z,13.61
2023-04-30T15:16:17.829Z,13.48
2023-04-30T15:19:21.608Z,13.35
2023-04-30T15:22:25.143Z,13.28
2023-04-30T15:25:28.198Z,13.36
2023-04-30T15:28:35.273Z,13.40
2023-04-30T15:31:39.012Z,13.37
2023-04-30T15:34:42.384Z,13.25
2023-04-30T15:37:45.891Z,13.14
2023-04-30T15:40:50.017Z,13.05
2023-04-30T15:43:53.658Z,13.03
2023-04-30T15:46:57.496Z,13.00
2023-04-30T15:50:01.460Z,12.95
2023-04-30T15:53:05.009Z,12.86
2023-04-30T15:56:10.190Z,12.81
2023-04-30T15:59:18.422Z,12.78
2023-04-30T16:02:23.354Z,12.76
2023-04-30T16:05:26.304Z,12.74
2023-04-30T16:08:30.617Z,12.74
2023-04-30T16:11:34.528Z,12.71
2023-04-30T16:14:38.201Z,12.65
2023-04-30T16:17:42.026Z,12.60
2023-04-30T16:20:49.142Z,12.53
2023-04-30T16:23:53.430Z,12.43
2023-04-30T16:26:57.331Z,12.29
2023-04-30T16:30:01.561Z,12.21
2023-04-30T16:33:04.612Z,12.12
2023-04-30T16:36:07.590Z,12.02
2023-04-30T16:39:12.082Z,11.99
2023-04-30T16:42:15.096Z,12.01
2023-04-30T16:45:18.381Z,12.00
2023-04-30T16:48:22.009Z,11.96
2023-04-30T16:51:25.272Z,12.02
2023-04-30T16:54:28.435Z,12.11
2023-04-30T16:57:32.227Z,12.17
2023-04-30T17:00:36.233Z,12.22
2023-04-30T17:03:39.692Z,12.22
2023-04-30T17:06:43.123Z,12.25
2023-04-30T17:09:46.550Z,12.25
2023-04-30T17:12:49.561Z,12.23
2023-04-30T17:15:52.976Z,12.15
2023-04-30T17:18:56.816Z,12.05
2023-04-30T17:22:01.260Z,11.86
2023-04-30T17:25:05.203Z,11.35
2023-04-30T17:28:09.167Z,10.72
2023-04-30T17:31:14.123Z,10.16
2023-04-30T17:34:18.080Z,9.84
2023-04-30T17:37:21.549Z,9.71
2023-04-30T17:40:24.366Z,9.71
2023-04-30T17:43:28.153Z,9.67
2023-04-30T17:46:32.251Z,9.79
2023-04-30T17:49:36.025Z,9.98
2023-04-30T17:52:39.641Z,10.22
2023-04-30T17:55:42.760Z,10.45
2023-04-30T17:58:46.780Z,10.66
2023-04-30T18:01:49.675Z,10.76
2023-04-30T18:04:53.822Z,10.81
2023-04-30T18:07:57.581Z,10.81
2023-04-30T18:11:00.990Z,10.78
2023-04-30T18:14:05.265Z,10.80
2023-04-30T18:17:08.524Z,10.78
2023-04-30T18:20:13.002Z,10.74
2023-04-30T18:23:16.504Z,10.77
2023-04-30T18:26:24.728Z,10.84
2023-04-30T18:29:28.411Z,10.98
2023-04-30T18:32:31.784Z,11.09
2023-04-30T18:35:35.578Z,11.20
2023-04-30T18:38:39.410Z,11.28
2023-04-30T18:41:43.279Z,11.38
2023-04-30T18:44:46.843Z,11.40
2023-04-30T18:47:50.745Z,11.37
2023-04-30T18:50:54.329Z,11.34
2023-04-30T18:53:58.172Z,11.32
2023-04-30T18:57:01.774Z,11.30
2023-04-30T19:00:07.700Z,11.28
2023-04-30T19:03:11.409Z,11.24
2023-04-30T19:06:15.088Z,11.20
2023-04-30T19:09:18.103Z,11.17
2023-04-30T19:12:21.655Z,11.16
2023-04-30T19:15:26.154Z,11.14
2023-04-30T19:18:30.009Z,11.16
2023-04-30T19:21:35.353Z,11.16
2023-04-30T19:24:39.290Z,11.20
2023-04-30T19:27:44.653Z,11.22
2023-04-30T19:30:51.408Z,11.22
2023-04-30T19:33:55.030Z,11.20
2023-04-30T19:36:58.486Z,11.16
2023-04-30T19:40:01.581Z,11.17
2023-04-30T19:43:05.527Z,11.13
2023-04-30T19:46:08.522Z,11.10
2023-04-30T19:49:11.784Z,11.06
2023-04-30T19:52:15.003Z,10.98
2023-04-30T19:55:18.673Z,10.92
2023-04-30T19:58:21.632Z,10.86
2023-04-30T20:01:25.214Z,10.83
2023-04-30T20:04:28.942Z,10.81
2023-04-30T20:07:32.617Z,10.83
2023-04-30T20:10:36.768Z,10.84
2023-04-30T20:13:40.860Z,10.85
2023-04-30T20:16:44.485Z,10.82
2023-04-30T20:19:47.897Z,10.79
2023-04-30T20:22:54.032Z,10.73
2023-04-30T20:25:57.319Z,10.56
2023-04-30T20:29:01.491Z,10.51
2023-04-30T20:32:06.301Z,10.41
2023-04-30T20:35:09.595Z,10.41
2023-04-30T20:38:13.799Z,10.44
2023-04-30T20:41:16.706Z,10.52
2023-04-30T20:44:19.753Z,10.59
2023-04-30T20:47:24.429Z,10.66
2023-04-30T20:50:29.051Z,10.72
2023-04-30T20:53:32.043Z,10.79
2023-04-30T20:56:36.039Z,10.81
2023-04-30T20:59:39.269Z,10.85
2023-04-30T21:02:42.724Z,10.90
2023-04-30T21:05:46.578Z,10.96
2023-04-30T21:08:50.270Z,11.01
2023-04-30T21:11:53.841Z,11.07
2023-04-30T21:14:58.408Z,11.09
2023-04-30T21:18:02.363Z,11.16
2023-04-30T21:21:06.250Z,11.20
2023-04-30T21:24:09.846Z,11.22
2023-04-30T21:27:13.117Z,11.27
2023-04-30T21:30:17.599Z,11.34
2023-04-30T21:33:21.862Z,11.39
2023-04-30T21:36:25.164Z,11.42
2023-04-30T21:39:31.451Z,11.42
2023-04-30T21:42:34.578Z,11.46
2023-04-30T21:45:38.159Z,11.51
2023-04-30T21:48:41.799Z,11.50
2023-04-30T21:51:45.399Z,11.50
2023-04-30T21:54:50.621Z,11.46
2023-04-30T21:57:53.958Z,11.42
2023-04-30T22:00:57.624Z,11.49
2023-04-30T22:04:01.555Z,11.46
2023-04-30T22:07:05.739Z,11.44
2023-04-30T22:10:09.099Z,11.42
2023-04-30T22:13:13.019Z,11.51
2023-04-30T22:16:16.869Z,11.74
2023-04-30T22:19:20.653Z,11.77
2023-04-30T22:22:24.199Z,11.64
2023-04-30T22:25:27.789Z,11.36
2023-04-30T22:28:31.856Z,11.34
2023-04-30T22:31:34.848Z,11.49
2023-04-30T22:34:41.091Z,11.64
2023-04-30T22:37:44.231Z,11.75
2023-04-30T22:40:48.038Z,11.87
2023-04-30T22:43:51.795Z,11.98
2023-04-30T22:46:58.820Z,12.07
2023-04-30T22:50:02.505Z,12.11
2023-04-30T22:53:06.531Z,12.12
2023-04-30T22:56:11.221Z,12.17
2023-04-30T22:59:14.637Z,12.16
2023-04-30T23:02:20.538Z,12.20
2023-04-30T23:05:23.441Z,12.20
2023-04-30T23:08:26.841Z,12.22
2023-04-30T23:11:29.775Z,12.41
2023-04-30T23:14:33.656Z,12.67
2023-04-30T23:17:37.430Z,12.95
2023-04-30T23:20:41.476Z,13.06
2023-04-30T23:23:45.357Z,13.09
2023-04-30T23:26:49.039Z,13.20
2023-04-30T23:29:53.266Z,13.41
2023-04-30T23:32:57.167Z,13.68
2023-04-30T23:36:00.846Z,13.87
2023-04-30T23:39:05.268Z,13.75
2023-04-30T23:42:09.013Z,13.47
2023-04-30T23:45:12.702Z,13.46
2023-04-30T23:48:16.723Z,13.63
2023-04-30T23:51:22.033Z,13.91
2023-04-30T23:54:25.758Z,14.11
2023-04-30T23:57:29.465Z,14.32
